createdAt,value
2022-09-12T00:00:49.512Z,100.00
2022-09-12T00:03:17.402Z,100.00
2022-09-12T00:05:47.961Z,100.00
2022-09-12T00:08:15.637Z,100.00
2022-09-12T00:10:45.528Z,100.00
2022-09-12T00:13:13.138Z,100.00
2022-09-12T00:15:44.039Z,100.00
2022-09-12T00:18:15.129Z,100.00
2022-09-12T00:20:44.429Z,100.00
2022-09-12T00:23:12.000Z,100.00
2022-09-12T00:25:43.359Z,99.86
2022-09-12T00:28:11.256Z,99.41
2022-09-12T00:30:42.075Z,99.38
2022-09-12T00:33:10.223Z,99.20
2022-09-12T00:35:44.334Z,99.59
2022-09-12T00:38:11.963Z,99.62
2022-09-12T00:40:39.599Z,99.34
2022-09-12T00:43:07.436Z,99.42
2022-09-12T00:45:35.061Z,99.62
2022-09-12T00:48:04.326Z,99.54
2022-09-12T00:50:32.913Z,99.50
2022-09-12T00:53:04.603Z,99.56
2022-09-12T00:55:36.466Z,99.45
2022-09-12T00:58:07.654Z,99.39
2022-09-12T01:00:35.237Z,99.62
2022-09-12T01:03:06.886Z,100.00
2022-09-12T01:05:36.369Z,99.60
2022-09-12T01:08:06.526Z,99.64
2022-09-12T01:10:36.565Z,99.58
2022-09-12T01:13:06.767Z,100.00
2022-09-12T01:15:34.923Z,100.00
2022-09-12T01:18:12.430Z,100.00
2022-09-12T01:20:51.401Z,100.00
2022-09-12T01:23:48.983Z,100.00
2022-09-12T01:27:10.372Z,100.00
2022-09-12T01:30:23.465Z,100.00
2022-09-12T01:33:10.185Z,100.00
2022-09-12T01:35:45.822Z,100.00
2022-09-12T01:38:20.656Z,100.00
2022-09-12T01:40:53.140Z,100.00
2022-09-12T01:43:26.247Z,100.00
2022-09-12T01:45:59.436Z,100.00
2022-09-12T01:48:31.245Z,100.00
2022-09-12T01:51:03.876Z,100.00
2022-09-12T01:53:36.669Z,100.00
2022-09-12T01:56:08.121Z,100.00
2022-09-12T01:58:42.741Z,100.00
2022-09-12T02:01:15.024Z,100.00
2022-09-12T02:03:45.667Z,100.00
2022-09-12T02:06:16.966Z,100.00
2022-09-12T02:08:47.681Z,100.00
2022-09-12T02:11:15.404Z,100.00
2022-09-12T02:13:44.284Z,100.00
2022-09-12T02:16:17.567Z,100.00
2022-09-12T02:18:47.402Z,100.00
2022-09-12T02:21:15.130Z,100.00
2022-09-12T02:23:46.102Z,100.00
2022-09-12T02:26:20.218Z,100.00
2022-09-12T02:28:48.899Z,100.00
2022-09-12T02:31:23.342Z,100.00
2022-09-12T02:34:01.903Z,100.00
2022-09-12T02:36:34.951Z,100.00
2022-09-12T02:39:02.535Z,100.00
2022-09-12T02:41:30.057Z,100.00
2022-09-12T02:43:57.979Z,100.00
2022-09-12T02:46:30.914Z,100.00
2022-09-12T02:48:58.654Z,100.00
2022-09-12T02:51:27.136Z,100.00
2022-09-12T02:53:54.881Z,100.00
2022-09-12T02:56:24.964Z,100.00
2022-09-12T02:58:53.121Z,100.00
2022-09-12T03:01:31.022Z,100.00
2022-09-12T03:04:16.919Z,100.00
2022-09-12T03:06:51.019Z,100.00
2022-09-12T03:09:22.469Z,100.00
2022-09-12T03:12:08.303Z,100.00
2022-09-12T03:15:01.574Z,100.00
2022-09-12T03:17:43.137Z,100.00
2022-09-12T03:20:12.878Z,100.00
2022-09-12T03:22:51.040Z,100.00
2022-09-12T03:25:20.261Z,100.00
2022-09-12T03:27:55.781Z,100.00
2022-09-12T03:30:23.409Z,99.92
2022-09-12T03:32:54.309Z,99.62
2022-09-12T03:35:24.285Z,99.80
2022-09-12T03:37:53.143Z,99.11
2022-09-12T03:40:21.272Z,99.74
2022-09-12T03:42:48.829Z,99.17
2022-09-12T03:45:16.724Z,100.00
2022-09-12T03:47:44.208Z,99.82
2022-09-12T03:50:13.071Z,100.00
2022-09-12T03:52:40.549Z,100.00
2022-09-12T03:55:08.560Z,100.00
2022-09-12T03:57:36.093Z,99.84
2022-09-12T04:00:05.321Z,99.69
2022-09-12T04:02:40.049Z,100.00
2022-09-12T04:05:07.913Z,100.00
2022-09-12T04:07:36.820Z,100.00
2022-09-12T04:10:05.058Z,100.00
2022-09-12T04:12:32.508Z,100.00
2022-09-12T04:14:59.970Z,100.00
2022-09-12T04:17:27.494Z,100.00
2022-09-12T04:19:54.951Z,100.00
2022-09-12T04:22:24.564Z,100.00
2022-09-12T04:24:53.378Z,100.00
2022-09-12T04:27:20.841Z,100.00
2022-09-12T04:29:48.541Z,100.00
2022-09-12T04:32:16.024Z,100.00
2022-09-12T04:34:43.554Z,100.00
2022-09-12T04:37:11.657Z,100.00
2022-09-12T04:39:39.280Z,100.00
2022-09-12T04:42:08.349Z,100.00
2022-09-12T04:44:35.865Z,100.00
2022-09-12T04:47:03.329Z,100.00
2022-09-12T04:49:30.888Z,100.00
2022-09-12T04:52:00.785Z,100.00
2022-09-12T04:54:28.230Z,100.00
2022-09-12T04:56:55.901Z,100.00
2022-09-12T04:59:25.386Z,100.00
2022-09-12T05:01:52.923Z,100.00
2022-09-12T05:04:21.677Z,100.00
2022-09-12T05:06:49.518Z,100.00
2022-09-12T05:09:17.241Z,100.00
2022-09-12T05:14:35.032Z,100.00
2022-09-12T05:17:03.042Z,100.00
2022-09-12T05:19:31.909Z,100.00
2022-09-12T05:21:59.764Z,100.00
2022-09-12T05:24:27.314Z,100.00
2022-09-12T05:26:54.780Z,100.00
2022-09-12T05:29:22.353Z,100.00
2022-09-12T05:31:52.137Z,100.00
2022-09-12T05:34:20.213Z,100.00
2022-09-12T05:36:47.812Z,100.00
2022-09-12T05:39:15.633Z,100.00
2022-09-12T05:41:43.113Z,100.00
2022-09-12T05:44:13.965Z,100.00
2022-09-12T05:46:43.770Z,100.00
2022-09-12T05:49:14.413Z,100.00
2022-09-12T05:51:43.546Z,100.00
2022-09-12T05:54:13.089Z,100.00
2022-09-12T05:56:42.363Z,100.00
2022-09-12T05:59:13.151Z,100.00
2022-09-12T06:01:41.062Z,100.00
2022-09-12T06:04:08.829Z,100.00
2022-09-12T06:06:41.501Z,100.00
2022-09-12T06:09:09.517Z,100.00
2022-09-12T06:11:40.679Z,100.00
2022-09-12T06:14:09.791Z,100.00
2022-09-12T06:16:38.089Z,100.00
2022-09-12T06:19:07.802Z,100.00
2022-09-12T06:21:35.877Z,100.00
2022-09-12T06:24:05.097Z,100.00
2022-09-12T06:26:33.169Z,100.00
2022-09-12T06:29:01.429Z,100.00
2022-09-12T06:31:30.897Z,100.00
2022-09-12T06:34:00.941Z,100.00
2022-09-12T06:36:29.957Z,100.00
2022-09-12T06:38:58.331Z,99.40
2022-09-12T06:41:27.223Z,97.55
2022-09-12T06:43:54.977Z,95.28
2022-09-12T06:46:22.668Z,94.14
2022-09-12T06:48:50.444Z,93.13
2022-09-12T06:51:19.968Z,91.74
2022-09-12T06:53:48.290Z,91.52
2022-09-12T06:56:17.044Z,90.68
2022-09-12T06:58:46.945Z,89.56
2022-09-12T07:01:16.565Z,87.22
2022-09-12T07:03:46.011Z,87.31
2022-09-12T07:06:15.815Z,85.75
2022-09-12T07:08:43.688Z,83.39
2022-09-12T07:11:13.150Z,80.48
2022-09-12T07:13:41.008Z,80.48
2022-09-12T07:16:10.521Z,81.26
2022-09-12T07:18:39.512Z,79.83
2022-09-12T07:21:08.585Z,76.25
2022-09-12T07:23:36.022Z,76.02
2022-09-12T07:26:04.039Z,74.01
2022-09-12T07:28:33.293Z,74.03
2022-09-12T07:31:06.601Z,73.97
2022-09-12T07:33:35.966Z,74.17
2022-09-12T07:36:04.743Z,70.14
2022-09-12T07:38:32.477Z,68.84
2022-09-12T07:41:01.086Z,68.92
2022-09-12T07:43:28.781Z,68.90
2022-09-12T07:45:56.868Z,67.47
2022-09-12T07:48:24.713Z,68.13
2022-09-12T07:51:00.617Z,67.50
2022-09-12T07:53:31.543Z,69.17
2022-09-12T07:55:59.162Z,67.22
2022-09-12T07:58:26.989Z,66.46
2022-09-12T08:00:54.918Z,66.47
2022-09-12T08:03:22.440Z,66.24
2022-09-12T08:05:49.903Z,67.45
2022-09-12T08:08:18.843Z,66.40
2022-09-12T08:10:46.520Z,69.01
2022-09-12T08:13:13.975Z,67.33
2022-09-12T08:15:41.586Z,69.40
2022-09-12T08:18:09.354Z,66.09
2022-09-12T08:20:37.039Z,67.97
2022-09-12T08:23:04.905Z,65.07
2022-09-12T08:25:34.560Z,66.06
2022-09-12T08:28:02.517Z,66.56
2022-09-12T08:30:30.131Z,68.00
2022-09-12T08:32:57.682Z,67.93
2022-09-12T08:35:25.168Z,67.38
2022-09-12T08:37:52.629Z,70.56
2022-09-12T08:40:20.407Z,69.18
2022-09-12T08:42:55.740Z,67.28
2022-09-12T08:45:28.066Z,69.31
2022-09-12T08:47:56.747Z,69.15
2022-09-12T08:50:29.268Z,69.09
2022-09-12T08:52:59.217Z,68.74
2022-09-12T08:55:34.511Z,68.21
2022-09-12T08:58:10.977Z,68.07
2022-09-12T09:00:44.678Z,68.84
2022-09-12T09:03:32.815Z,69.77
2022-09-12T09:06:08.342Z,69.96
2022-09-12T09:08:46.217Z,72.61
2022-09-12T09:11:39.128Z,71.87
2022-09-12T09:14:40.038Z,70.72
2022-09-12T09:17:10.093Z,71.47
2022-09-12T09:19:39.198Z,69.86
2022-09-12T09:22:10.873Z,70.38
2022-09-12T09:24:40.560Z,68.63
2022-09-12T09:27:37.024Z,68.16
2022-09-12T09:30:01.425Z,66.01
2022-09-12T09:32:32.289Z,66.40
2022-09-12T09:34:59.881Z,65.46
2022-09-12T09:37:33.083Z,68.74
2022-09-12T09:40:08.193Z,66.41
2022-09-12T09:42:40.930Z,66.15
2022-09-12T09:45:16.568Z,63.87
2022-09-12T09:47:46.257Z,64.07
2022-09-12T09:50:16.729Z,62.29
2022-09-12T09:52:44.458Z,61.36
2022-09-12T09:55:16.730Z,61.67
2022-09-12T09:57:46.669Z,60.67
2022-09-12T10:00:34.831Z,60.08
2022-09-12T10:03:06.275Z,61.45
2022-09-12T10:05:38.221Z,60.78
2022-09-12T10:08:08.247Z,61.36
2022-09-12T10:10:35.743Z,61.29
2022-09-12T10:13:10.138Z,63.81
2022-09-12T10:15:39.099Z,61.41
2022-09-12T10:18:06.933Z,59.44
2022-09-12T10:20:37.270Z,61.28
2022-09-12T10:23:24.727Z,56.40
2022-09-12T10:25:55.348Z,57.81
2022-09-12T10:28:33.520Z,60.37
2022-09-12T10:31:02.883Z,59.00
2022-09-12T10:33:31.586Z,57.47
2022-09-12T10:35:59.303Z,55.74
2022-09-12T10:38:28.745Z,55.42
2022-09-12T10:40:58.019Z,54.20
2022-09-12T10:43:28.554Z,59.59
2022-09-12T10:45:58.491Z,57.78
2022-09-12T10:48:31.636Z,56.72
2022-09-12T10:50:59.928Z,57.05
2022-09-12T10:53:32.383Z,56.12
2022-09-12T10:56:07.916Z,57.21
2022-09-12T10:58:55.921Z,59.46
2022-09-12T11:01:34.736Z,56.15
2022-09-12T11:04:20.181Z,55.67
2022-09-12T11:06:56.381Z,56.80
2022-09-12T11:09:28.451Z,55.05
2022-09-12T11:12:04.562Z,58.77
2022-09-12T11:14:41.638Z,54.74
2022-09-12T11:17:23.501Z,53.30
2022-09-12T11:20:17.617Z,55.54
2022-09-12T11:23:01.915Z,56.43
2022-09-12T11:25:32.384Z,58.75
2022-09-12T11:28:26.845Z,54.75
2022-09-12T11:31:04.492Z,59.07
2022-09-12T11:33:43.348Z,58.03
2022-09-12T11:36:24.849Z,59.50
2022-09-12T11:38:54.368Z,58.67
2022-09-12T11:41:29.366Z,57.49
2022-09-12T11:44:01.338Z,57.53
2022-09-12T11:46:32.025Z,56.72
2022-09-12T11:49:02.692Z,57.12
2022-09-12T11:51:35.934Z,53.82
2022-09-12T11:54:07.884Z,59.22
2022-09-12T11:56:39.169Z,52.17
2022-09-12T11:59:13.339Z,53.36
2022-09-12T12:01:48.342Z,55.94
2022-09-12T12:04:18.268Z,52.87
2022-09-12T12:06:53.405Z,51.84
2022-09-12T12:09:21.241Z,50.09
2022-09-12T12:11:50.920Z,53.82
2022-09-12T12:14:21.030Z,53.48
2022-09-12T12:16:49.340Z,51.91
2022-09-12T12:19:33.658Z,54.02
2022-09-12T12:22:09.887Z,57.94
2022-09-12T12:25:05.454Z,49.67
2022-09-12T12:27:54.191Z,52.64
2022-09-12T12:30:55.126Z,48.64
2022-09-12T12:34:11.578Z,52.82
2022-09-12T12:36:43.346Z,56.71
2022-09-12T12:39:44.369Z,53.71
2022-09-12T12:43:06.079Z,55.82
2022-09-12T12:46:08.331Z,53.49
2022-09-12T12:48:57.013Z,54.58
2022-09-12T12:51:37.851Z,49.54
2022-09-12T12:54:12.336Z,48.09
2022-09-12T12:56:42.084Z,49.92
2022-09-12T12:59:18.699Z,47.39
2022-09-12T13:01:52.815Z,46.58
2022-09-12T13:04:24.519Z,50.01
2022-09-12T13:06:59.281Z,50.01
2022-09-12T13:09:29.992Z,56.03
2022-09-12T13:12:02.462Z,48.66
2022-09-12T13:14:52.693Z,48.90
2022-09-12T13:17:25.178Z,49.20
2022-09-12T13:20:16.855Z,50.29
2022-09-12T13:22:44.585Z,43.93
2022-09-12T13:25:21.625Z,46.91
2022-09-12T13:27:58.824Z,48.61
2022-09-12T13:30:28.405Z,47.04
2022-09-12T13:32:58.681Z,46.92
2022-09-12T13:35:33.528Z,48.70
2022-09-12T13:38:04.894Z,48.60
2022-09-12T13:40:37.536Z,48.04
2022-09-12T13:43:15.786Z,48.89
2022-09-12T13:45:47.047Z,48.33
2022-09-12T13:48:16.669Z,48.61
2022-09-12T13:50:49.438Z,46.82
2022-09-12T13:53:18.870Z,46.23
2022-09-12T13:55:48.992Z,45.09
2022-09-12T13:58:18.472Z,47.02
2022-09-12T14:00:47.980Z,44.58
2022-09-12T14:03:46.201Z,44.19
2022-09-12T14:06:16.459Z,46.05
2022-09-12T14:08:44.390Z,47.44
2022-09-12T14:11:12.956Z,46.87
2022-09-12T14:13:40.622Z,45.27
2022-09-12T14:16:12.321Z,45.85
2022-09-12T14:18:41.884Z,46.75
2022-09-12T14:21:12.665Z,47.11
2022-09-12T14:23:42.476Z,45.91
2022-09-12T14:26:12.437Z,47.44
2022-09-12T14:28:41.883Z,46.40
2022-09-12T14:31:24.767Z,45.47
2022-09-12T14:33:53.431Z,47.12
2022-09-12T14:36:25.731Z,47.01
2022-09-12T14:38:55.409Z,44.05
2022-09-12T14:41:25.523Z,47.04
2022-09-12T14:43:55.753Z,47.84
2022-09-12T14:46:28.401Z,46.39
2022-09-12T14:48:58.765Z,45.27
2022-09-12T14:51:28.603Z,47.30
2022-09-12T14:53:56.125Z,45.68
2022-09-12T14:56:38.920Z,47.59
2022-09-12T14:59:27.475Z,50.39
2022-09-12T15:02:19.392Z,47.19
2022-09-12T15:04:48.289Z,45.01
2022-09-12T15:07:16.184Z,43.92
2022-09-12T15:09:47.266Z,45.90
2022-09-12T15:12:15.001Z,44.70
2022-09-12T15:14:42.729Z,46.28
2022-09-12T15:17:10.193Z,45.56
2022-09-12T15:19:38.989Z,45.94
2022-09-12T15:22:06.511Z,48.17
2022-09-12T15:24:34.002Z,47.69
2022-09-12T15:27:01.629Z,47.02
2022-09-12T15:29:29.058Z,46.11
2022-09-12T15:31:56.530Z,47.69
2022-09-12T15:34:24.877Z,46.72
2022-09-12T15:36:53.756Z,45.79
2022-09-12T15:39:21.365Z,47.31
2022-09-12T15:41:49.357Z,46.66
2022-09-12T15:44:16.877Z,49.58
2022-09-12T15:46:44.495Z,48.44
2022-09-12T15:49:11.981Z,49.68
2022-09-12T15:51:40.033Z,50.12
2022-09-12T15:54:11.933Z,49.84
2022-09-12T15:56:39.450Z,51.66
2022-09-12T15:59:06.981Z,51.56
2022-09-12T16:01:34.526Z,52.16
2022-09-12T16:04:03.260Z,50.98
2022-09-12T16:06:36.782Z,53.77
2022-09-12T16:09:04.965Z,52.37
2022-09-12T16:11:33.889Z,54.29
2022-09-12T16:14:01.369Z,53.62
2022-09-12T16:16:28.854Z,54.90
2022-09-12T16:18:56.415Z,54.78
2022-09-12T16:21:26.102Z,55.24
2022-09-12T16:23:54.073Z,57.83
2022-09-12T16:26:25.825Z,59.01
2022-09-12T16:28:56.975Z,59.83
2022-09-12T16:31:28.868Z,60.95
2022-09-12T16:33:56.830Z,61.22
2022-09-12T16:36:25.178Z,60.67
2022-09-12T16:38:54.225Z,61.66
2022-09-12T16:41:24.574Z,62.94
2022-09-12T16:43:52.780Z,63.46
2022-09-12T16:46:26.148Z,64.49
2022-09-12T16:48:55.619Z,64.50
2022-09-12T16:51:25.845Z,66.57
2022-09-12T16:53:53.518Z,69.41
2022-09-12T16:56:21.607Z,69.29
2022-09-12T16:58:49.444Z,71.64
2022-09-12T17:01:19.039Z,73.38
2022-09-12T17:03:48.042Z,74.16
2022-09-12T17:06:18.000Z,76.17
2022-09-12T17:08:48.452Z,77.54
2022-09-12T17:11:18.217Z,76.25
2022-09-12T17:14:03.704Z,75.06
2022-09-12T17:16:32.921Z,78.40
2022-09-12T17:19:01.752Z,79.95
2022-09-12T17:21:29.356Z,79.88
2022-09-12T17:23:57.166Z,83.65
2022-09-12T17:26:24.633Z,85.02
2022-09-12T17:28:52.161Z,83.61
2022-09-12T17:31:19.757Z,84.10
2022-09-12T17:33:47.859Z,85.95
2022-09-12T17:36:17.853Z,86.00
2022-09-12T17:38:46.337Z,86.46
2022-09-12T17:41:17.527Z,86.68
2022-09-12T17:43:46.250Z,85.68
2022-09-12T17:46:14.669Z,87.66
2022-09-12T17:48:42.629Z,87.10
2022-09-12T17:51:11.206Z,88.43
2022-09-12T17:53:40.358Z,89.95
2022-09-12T17:56:08.915Z,91.09
2022-09-12T17:58:37.083Z,91.04
2022-09-12T18:01:23.515Z,91.26
2022-09-12T18:03:51.858Z,91.28
2022-09-12T18:06:19.579Z,91.46
2022-09-12T18:08:48.428Z,92.18
2022-09-12T18:11:15.909Z,92.08
2022-09-12T18:13:43.461Z,92.05
2022-09-12T18:16:12.397Z,92.25
2022-09-12T18:18:40.335Z,92.37
2022-09-12T18:21:08.945Z,92.32
2022-09-12T18:23:36.564Z,93.20
2022-09-12T18:26:06.921Z,93.12
2022-09-12T18:28:34.986Z,93.07
2022-09-12T18:31:02.736Z,94.30
2022-09-12T18:33:30.305Z,94.42
2022-09-12T18:35:57.775Z,94.24
2022-09-12T18:38:25.346Z,95.25
2022-09-12T18:41:02.401Z,94.99
2022-09-12T18:43:31.622Z,95.52
2022-09-12T18:46:04.030Z,95.26
2022-09-12T18:48:32.655Z,94.34
2022-09-12T18:51:05.770Z,93.21
2022-09-12T18:53:36.301Z,92.05
2022-09-12T18:56:06.155Z,91.14
2022-09-12T18:58:35.213Z,90.77
2022-09-12T19:01:09.891Z,88.40
2022-09-12T19:03:37.599Z,87.96
2022-09-12T19:06:09.704Z,85.99
2022-09-12T19:08:37.282Z,85.01
2022-09-12T19:11:05.349Z,82.52
2022-09-12T19:13:33.057Z,81.95
2022-09-12T19:16:03.040Z,80.57
2022-09-12T19:18:31.239Z,79.23
2022-09-12T19:20:58.743Z,78.84
2022-09-12T19:23:26.867Z,78.79
2022-09-12T19:25:57.665Z,77.46
2022-09-12T19:28:26.799Z,75.90
2022-09-12T19:30:54.739Z,75.50
2022-09-12T19:33:25.668Z,75.82
2022-09-12T19:35:53.186Z,74.14
2022-09-12T19:38:20.706Z,73.52
2022-09-12T19:40:56.626Z,73.05
2022-09-12T19:43:24.362Z,72.54
2022-09-12T19:45:52.822Z,71.55
2022-09-12T19:48:22.322Z,72.38
2022-09-12T19:50:51.444Z,71.06
2022-09-12T19:53:19.235Z,71.84
2022-09-12T19:55:47.227Z,71.09
2022-09-12T19:58:14.783Z,71.47
2022-09-12T20:00:42.265Z,69.97
2022-09-12T20:03:09.728Z,70.50
2022-09-12T20:05:42.026Z,70.99
2022-09-12T20:08:11.554Z,70.39
2022-09-12T20:10:39.038Z,70.50
2022-09-12T20:13:06.633Z,70.56
2022-09-12T20:15:34.186Z,70.53
2022-09-12T20:18:01.710Z,70.89
2022-09-12T20:20:29.226Z,71.12
2022-09-12T20:22:56.729Z,71.26
2022-09-12T20:25:25.769Z,71.32
2022-09-12T20:27:56.946Z,71.27
2022-09-12T20:30:27.067Z,71.62
2022-09-12T20:32:54.564Z,70.91
2022-09-12T20:35:22.680Z,71.35
2022-09-12T20:37:50.250Z,71.59
2022-09-12T20:40:18.094Z,71.00
2022-09-12T20:42:47.013Z,70.69
2022-09-12T20:45:14.760Z,70.17
2022-09-12T20:47:42.248Z,70.67
2022-09-12T20:50:10.445Z,70.20
2022-09-12T20:52:37.922Z,71.13
2022-09-12T20:55:06.383Z,70.18
2022-09-12T20:57:34.170Z,70.46
2022-09-12T21:00:03.582Z,70.05
2022-09-12T21:02:31.119Z,70.58
2022-09-12T21:04:58.798Z,70.11
2022-09-12T21:07:26.338Z,70.70
2022-09-12T21:09:54.235Z,70.82
2022-09-12T21:12:28.334Z,70.56
2022-09-12T21:14:55.794Z,70.32
2022-09-12T21:17:26.879Z,71.49
2022-09-12T21:19:54.511Z,70.98
2022-09-12T21:22:22.154Z,70.70
2022-09-12T21:24:49.733Z,70.90
2022-09-12T21:27:17.202Z,71.72
2022-09-12T21:29:44.673Z,70.78
2022-09-12T21:32:14.376Z,70.79
2022-09-12T21:34:43.338Z,70.77
2022-09-12T21:37:10.820Z,70.06
2022-09-12T21:39:38.320Z,69.94
2022-09-12T21:42:05.899Z,69.97
2022-09-12T21:44:33.449Z,69.25
2022-09-12T21:47:00.914Z,69.99
2022-09-12T21:49:28.542Z,69.28
2022-09-12T21:51:57.638Z,69.03
2022-09-12T21:54:25.103Z,68.79
2022-09-12T21:56:52.981Z,68.89
2022-09-12T21:59:20.574Z,69.26
2022-09-12T22:01:48.403Z,69.56
2022-09-12T22:04:16.009Z,69.77
2022-09-12T22:06:43.602Z,69.68
2022-09-12T22:09:12.509Z,70.50
2022-09-12T22:11:40.034Z,70.59
2022-09-12T22:14:07.478Z,70.58
2022-09-12T22:16:34.961Z,70.75
2022-09-12T22:19:02.444Z,71.11
2022-09-12T22:21:30.586Z,71.65
2022-09-12T22:24:15.392Z,71.99
2022-09-12T22:26:46.098Z,72.22
2022-09-12T22:29:14.478Z,72.22
2022-09-12T22:31:42.485Z,73.21
2022-09-12T22:34:10.000Z,71.60
2022-09-12T22:36:39.141Z,71.33
2022-09-12T22:39:07.103Z,72.16
2022-09-12T22:41:34.672Z,72.10
2022-09-12T22:44:03.700Z,72.64
2022-09-12T22:46:31.759Z,72.30
2022-09-12T22:48:59.329Z,71.98
2022-09-12T22:51:26.891Z,72.54
2022-09-12T22:53:54.426Z,71.82
2022-09-12T22:56:22.457Z,70.92
2022-09-12T22:58:50.754Z,71.25
2022-09-12T23:01:20.147Z,72.12
2022-09-12T23:03:47.706Z,71.32
2022-09-12T23:06:15.318Z,71.52
2022-09-12T23:08:43.178Z,70.61
2022-09-12T23:11:12.766Z,72.42
2022-09-12T23:13:42.829Z,71.33
2022-09-12T23:16:14.648Z,71.32
2022-09-12T23:18:43.651Z,71.67
2022-09-12T23:21:13.195Z,72.67
2022-09-12T23:23:40.919Z,70.88
2022-09-12T23:26:10.898Z,70.93
2022-09-12T23:28:40.212Z,70.16
2022-09-12T23:31:09.397Z,70.75
2022-09-12T23:33:37.555Z,72.59
2022-09-12T23:36:12.572Z,71.22
2022-09-12T23:38:40.069Z,72.33
2022-09-12T23:41:07.940Z,70.67
2022-09-12T23:43:35.753Z,71.49
2022-09-12T23:46:04.476Z,71.40
2022-09-12T23:48:33.016Z,71.65
2022-09-12T23:51:00.728Z,71.62
2022-09-12T23:53:29.584Z,72.13
2022-09-12T23:55:57.120Z,72.39
2022-09-12T23:58:24.991Z,71.11
